createdAt,value
2022-08-12T00:02:04.399Z,18.41
2022-08-12T00:06:00.442Z,18.37
2022-08-12T00:09:50.769Z,18.32
2022-08-12T00:13:37.522Z,18.27
2022-08-12T00:17:23.358Z,18.23
2022-08-12T00:21:08.649Z,18.17
2022-08-12T00:24:53.127Z,18.12
2022-08-12T00:28:39.926Z,18.04
2022-08-12T00:32:36.049Z,17.99
2022-08-12T00:36:35.258Z,17.95
2022-08-12T00:40:24.291Z,17.91
2022-08-12T00:43:56.123Z,17.90
2022-08-12T00:47:25.644Z,17.88
2022-08-12T00:50:54.868Z,17.88
2022-08-12T00:54:22.730Z,17.89
2022-08-12T00:57:52.255Z,17.88
2022-08-12T01:01:19.633Z,17.88
2022-08-12T01:05:08.447Z,17.86
2022-08-12T01:08:51.202Z,17.83
2022-08-12T01:12:19.657Z,17.76
2022-08-12T01:15:50.578Z,17.68
2022-08-12T01:19:22.122Z,17.57
2022-08-12T01:23:05.800Z,17.48
2022-08-12T01:26:36.152Z,17.38
2022-08-12T01:30:18.210Z,17.29
2022-08-12T01:33:57.720Z,17.19
2022-08-12T01:37:28.333Z,17.10
2022-08-12T01:41:03.390Z,17.01
2022-08-12T01:44:32.734Z,16.93
2022-08-12T01:48:18.908Z,16.90
2022-08-12T01:52:15.288Z,16.87
2022-08-12T01:55:46.294Z,16.86
2022-08-12T01:59:34.920Z,16.85
2022-08-12T02:03:20.553Z,16.83
2022-08-12T02:07:15.922Z,16.83
2022-08-12T02:11:11.570Z,16.79
2022-08-12T02:14:53.071Z,16.77
2022-08-12T02:18:27.693Z,16.76
2022-08-12T02:22:06.022Z,16.72
2022-08-12T02:25:39.713Z,16.67
2022-08-12T02:29:08.476Z,16.60
2022-08-12T02:32:42.010Z,16.53
2022-08-12T02:36:07.781Z,16.44
2022-08-12T02:39:37.073Z,16.37
2022-08-12T02:43:13.660Z,16.32
2022-08-12T02:46:41.768Z,16.27
2022-08-12T02:50:11.999Z,16.22
2022-08-12T02:53:41.108Z,16.21
2022-08-12T02:57:08.339Z,16.20
2022-08-12T03:00:35.887Z,16.22
2022-08-12T03:04:15.271Z,16.22
2022-08-12T03:07:58.989Z,16.24
2022-08-12T03:11:41.668Z,16.25
2022-08-12T03:15:13.157Z,16.27
2022-08-12T03:18:46.036Z,16.31
2022-08-12T03:22:15.038Z,16.34
2022-08-12T03:25:44.847Z,16.36
2022-08-12T03:29:13.234Z,16.38
2022-08-12T03:32:42.458Z,16.38
2022-08-12T03:36:11.359Z,16.36
2022-08-12T03:39:45.460Z,16.31
2022-08-12T03:43:34.024Z,16.26
2022-08-12T03:47:26.778Z,16.21
2022-08-12T03:51:12.469Z,16.17
2022-08-12T03:54:56.982Z,16.16
2022-08-12T03:58:42.688Z,16.16
2022-08-12T04:02:15.001Z,16.20
2022-08-12T04:05:55.298Z,16.23
2022-08-12T04:09:24.613Z,16.26
2022-08-12T04:13:19.900Z,16.34
2022-08-12T04:16:47.461Z,16.44
2022-08-12T04:20:19.333Z,16.54
2022-08-12T04:23:48.685Z,16.66
2022-08-12T04:27:16.137Z,16.79
2022-08-12T04:30:43.780Z,16.90
2022-08-12T04:34:12.277Z,16.99
2022-08-12T04:38:00.369Z,17.07
2022-08-12T04:41:29.226Z,17.13
2022-08-12T04:44:58.114Z,17.20
2022-08-12T04:48:25.284Z,17.24
2022-08-12T04:51:57.597Z,17.28
2022-08-12T04:55:24.871Z,17.35
2022-08-12T04:58:52.798Z,17.36
2022-08-12T05:02:22.799Z,17.40
2022-08-12T05:05:50.988Z,17.46
2022-08-12T05:09:19.316Z,17.52
2022-08-12T05:12:53.292Z,17.60
2022-08-12T05:16:25.941Z,17.68
2022-08-12T05:19:59.186Z,17.79
2022-08-12T05:23:29.061Z,17.90
2022-08-12T05:26:57.099Z,18.04
2022-08-12T05:30:24.791Z,18.17
2022-08-12T05:33:51.945Z,18.29
2022-08-12T05:37:19.558Z,18.41
2022-08-12T05:40:47.225Z,18.54
2022-08-12T05:44:18.003Z,18.68
2022-08-12T05:47:53.524Z,18.79
2022-08-12T05:51:25.434Z,18.90
2022-08-12T05:55:09.118Z,19.01
2022-08-12T05:58:39.897Z,19.12
2022-08-12T06:02:13.441Z,19.22
2022-08-12T06:05:55.064Z,19.33
2022-08-12T06:09:26.786Z,19.43
2022-08-12T06:12:56.686Z,19.55
2022-08-12T06:16:26.645Z,19.68
2022-08-12T06:20:25.755Z,19.81
2022-08-12T06:23:43.039Z,19.93
2022-08-12T06:27:12.294Z,20.03
2022-08-12T06:30:42.882Z,20.12
2022-08-12T06:35:23.478Z,20.21
2022-08-12T06:38:23.401Z,20.33
2022-08-12T06:42:32.102Z,20.42
2022-08-12T06:45:58.398Z,20.52
2022-08-12T06:49:25.603Z,20.61
2022-08-12T06:52:55.994Z,20.71
2022-08-12T06:56:39.828Z,20.81
2022-08-12T07:00:32.495Z,20.92
2022-08-12T07:04:26.375Z,21.03
2022-08-12T07:08:13.682Z,21.15
2022-08-12T07:11:50.936Z,21.26
2022-08-12T07:15:20.701Z,21.36
2022-08-12T07:18:54.737Z,21.46
2022-08-12T07:22:24.627Z,21.56
2022-08-12T07:25:58.300Z,21.65
2022-08-12T07:30:00.012Z,21.75
2022-08-12T07:33:22.770Z,21.84
2022-08-12T07:36:54.892Z,21.96
2022-08-12T07:40:37.751Z,22.00
2022-08-12T07:44:11.178Z,21.97
2022-08-12T07:47:44.265Z,21.98
2022-08-12T07:51:25.198Z,22.02
2022-08-12T07:54:58.226Z,22.11
2022-08-12T07:58:28.002Z,22.24
2022-08-12T08:01:59.854Z,22.42
2022-08-12T08:05:34.577Z,22.61
2022-08-12T08:09:04.681Z,22.75
2022-08-12T08:12:52.054Z,22.89
2022-08-12T08:16:23.424Z,23.04
2022-08-12T08:20:03.804Z,23.18
2022-08-12T08:23:55.638Z,23.31
2022-08-12T08:27:46.424Z,23.45
2022-08-12T08:31:18.465Z,23.55
2022-08-12T08:34:53.971Z,23.66
2022-08-12T08:38:35.100Z,23.74
2022-08-12T08:42:23.492Z,23.88
2022-08-12T08:45:52.192Z,24.00
2022-08-12T08:49:19.895Z,24.08
2022-08-12T08:52:49.347Z,24.08
2022-08-12T08:56:16.776Z,24.06
2022-08-12T08:59:44.831Z,24.06
2022-08-12T09:05:08.850Z,24.11
2022-08-12T09:07:17.746Z,24.31
2022-08-12T09:12:06.688Z,24.58
2022-08-12T09:15:16.618Z,24.84
2022-08-12T09:18:46.775Z,24.99
2022-08-12T09:22:18.568Z,24.96
2022-08-12T09:25:50.056Z,25.00
2022-08-12T09:30:11.927Z,25.06
2022-08-12T09:34:24.486Z,25.15
2022-08-12T09:37:19.602Z,25.28
2022-08-12T09:41:01.346Z,25.47
2022-08-12T09:45:03.570Z,25.64
2022-08-12T09:48:56.132Z,25.76
2022-08-12T09:52:32.014Z,25.91
2022-08-12T09:56:57.301Z,25.87
2022-08-12T10:00:14.574Z,25.80
2022-08-12T10:03:55.587Z,25.82
2022-08-12T10:07:39.837Z,26.05
2022-08-12T10:11:27.834Z,26.11
2022-08-12T10:16:01.539Z,26.29
2022-08-12T10:19:17.080Z,26.48
2022-08-12T10:22:46.172Z,26.67
2022-08-12T10:26:39.378Z,26.82
2022-08-12T10:30:39.461Z,27.00
2022-08-12T10:34:06.557Z,27.21
2022-08-12T10:38:33.495Z,27.34
2022-08-12T10:41:58.290Z,27.58
2022-08-12T10:45:32.582Z,27.69
2022-08-12T10:50:02.604Z,27.63
2022-08-12T10:52:54.677Z,27.75
2022-08-12T10:56:22.601Z,27.80
2022-08-12T11:00:30.782Z,27.79
2022-08-12T11:04:23.063Z,27.92
2022-08-12T11:08:37.282Z,28.07
2022-08-12T11:12:36.137Z,28.08
2022-08-12T11:15:19.107Z,28.28
2022-08-12T11:18:55.387Z,28.24
2022-08-12T11:22:25.197Z,28.19
2022-08-12T11:26:05.386Z,28.13
2022-08-12T11:30:01.536Z,28.09
2022-08-12T11:33:24.483Z,28.01
2022-08-12T11:37:24.843Z,27.95
2022-08-12T11:40:53.832Z,27.93
2022-08-12T11:44:35.703Z,28.10
2022-08-12T11:48:09.104Z,28.38
2022-08-12T11:51:44.117Z,28.55
2022-08-12T11:55:25.492Z,28.76
2022-08-12T12:01:58.789Z,28.96
2022-08-12T12:02:42.561Z,28.87
2022-08-12T12:06:09.916Z,28.85
2022-08-12T12:09:52.279Z,29.17
2022-08-12T12:13:22.867Z,29.39
2022-08-12T12:16:50.932Z,29.30
2022-08-12T12:20:18.738Z,29.27
2022-08-12T12:23:53.854Z,29.16
2022-08-12T12:28:00.662Z,29.06
2022-08-12T12:32:09.079Z,29.14
2022-08-12T12:35:17.791Z,29.09
2022-08-12T12:38:51.651Z,29.13
2022-08-12T12:42:42.472Z,29.19
2022-08-12T12:46:08.763Z,29.18
2022-08-12T12:49:36.228Z,29.11
2022-08-12T12:53:05.072Z,29.01
2022-08-12T12:56:34.589Z,28.94
2022-08-12T13:00:18.411Z,28.91
2022-08-12T13:03:48.859Z,28.92
2022-08-12T13:07:18.369Z,28.86
2022-08-12T13:10:51.063Z,28.93
2022-08-12T13:14:27.925Z,29.30
2022-08-12T13:18:07.646Z,29.52
2022-08-12T13:21:59.969Z,29.69
2022-08-12T13:25:32.449Z,29.84
2022-08-12T13:29:02.563Z,29.90
2022-08-12T13:32:31.871Z,29.90
2022-08-12T13:36:10.202Z,29.88
2022-08-12T13:39:40.830Z,29.83
2022-08-12T13:43:08.561Z,29.78
2022-08-12T13:46:58.502Z,29.70
2022-08-12T13:50:33.278Z,29.98
2022-08-12T13:54:21.686Z,30.35
2022-08-12T13:57:51.915Z,30.80
2022-08-12T14:01:21.914Z,31.07
2022-08-12T14:04:56.011Z,31.16
2022-08-12T14:08:25.785Z,31.42
2022-08-12T14:12:05.763Z,31.60
2022-08-12T14:15:38.207Z,31.49
2022-08-12T14:19:21.886Z,31.32
2022-08-12T14:22:56.973Z,31.10
2022-08-12T14:26:26.439Z,30.86
2022-08-12T14:30:16.038Z,30.65
2022-08-12T14:33:49.692Z,30.47
2022-08-12T14:37:57.695Z,30.44
2022-08-12T14:41:22.147Z,30.69
2022-08-12T14:44:58.984Z,31.12
2022-08-12T14:48:30.687Z,31.56
2022-08-12T14:52:43.912Z,31.89
2022-08-12T14:59:58.881Z,32.48
2022-08-12T15:03:46.747Z,32.59
2022-08-12T15:07:43.795Z,32.68
2022-08-12T15:11:14.226Z,32.79
2022-08-12T15:14:45.689Z,32.91
2022-08-12T15:18:15.143Z,32.97
2022-08-12T15:22:38.561Z,32.94
2022-08-12T15:25:40.339Z,32.85
2022-08-12T15:29:20.666Z,32.68
2022-08-12T15:32:49.919Z,32.44
2022-08-12T15:36:53.506Z,32.17
2022-08-12T15:40:30.296Z,31.86
2022-08-12T15:44:36.496Z,31.64
2022-08-12T15:47:53.776Z,31.44
2022-08-12T15:51:59.658Z,31.25
2022-08-12T15:55:35.079Z,31.04
2022-08-12T15:59:05.314Z,30.86
2022-08-12T16:02:49.467Z,30.68
2022-08-12T16:06:31.157Z,30.47
2022-08-12T16:10:11.670Z,30.33
2022-08-12T16:13:44.485Z,30.19
2022-08-12T16:17:15.608Z,30.00
2022-08-12T16:20:46.574Z,29.86
2022-08-12T16:24:15.263Z,29.76
2022-08-12T16:27:43.885Z,29.68
2022-08-12T16:31:22.503Z,29.60
2022-08-12T16:34:55.125Z,29.55
2022-08-12T16:38:28.434Z,29.48
2022-08-12T16:41:57.366Z,29.40
2022-08-12T16:46:04.171Z,29.31
2022-08-12T16:49:15.556Z,29.22
2022-08-12T16:52:49.360Z,29.13
2022-08-12T16:56:28.908Z,29.05
2022-08-12T16:59:59.724Z,28.99
2022-08-12T17:03:52.346Z,28.94
2022-08-12T17:07:23.263Z,28.85
2022-08-12T17:11:17.933Z,28.78
2022-08-12T17:15:21.469Z,28.69
2022-08-12T17:19:12.746Z,28.58
2022-08-12T17:22:57.820Z,28.48
2022-08-12T17:26:31.015Z,28.40
2022-08-12T17:30:03.758Z,28.34
2022-08-12T17:33:35.254Z,28.27
2022-08-12T17:37:23.052Z,28.22
2022-08-12T17:40:51.382Z,28.15
2022-08-12T17:44:21.187Z,28.09
2022-08-12T17:48:01.215Z,28.00
2022-08-12T17:51:35.228Z,27.92
2022-08-12T17:55:44.393Z,27.83
2022-08-12T17:59:47.711Z,27.73
2022-08-12T18:03:12.485Z,27.60
2022-08-12T18:07:02.071Z,27.46
2022-08-12T18:10:53.331Z,27.33
2022-08-12T18:14:28.145Z,27.19
2022-08-12T18:17:59.983Z,27.06
2022-08-12T18:21:27.415Z,26.91
2022-08-12T18:25:37.954Z,26.78
2022-08-12T18:29:27.213Z,26.64
2022-08-12T18:33:12.138Z,26.53
2022-08-12T18:36:40.218Z,26.44
2022-08-12T18:40:36.252Z,26.33
2022-08-12T18:44:09.347Z,26.19
2022-08-12T18:47:47.066Z,26.08
2022-08-12T18:51:21.855Z,25.99
2022-08-12T18:55:08.087Z,25.92
2022-08-12T18:58:53.134Z,25.85
2022-08-12T19:02:27.739Z,25.79
2022-08-12T19:05:57.757Z,25.74
2022-08-12T19:09:39.051Z,25.69
2022-08-12T19:13:42.920Z,25.64
2022-08-12T19:17:12.140Z,25.59
2022-08-12T19:20:47.863Z,25.55
2022-08-12T19:24:36.111Z,25.51
2022-08-12T19:28:07.634Z,25.44
2022-08-12T19:31:58.849Z,25.40
2022-08-12T19:36:07.116Z,25.35
2022-08-12T19:39:23.077Z,25.29
2022-08-12T19:43:01.064Z,25.23
2022-08-12T19:46:34.508Z,25.15
2022-08-12T19:50:04.859Z,25.09
2022-08-12T19:53:56.991Z,25.05
2022-08-12T19:57:25.964Z,24.98
2022-08-12T20:00:56.146Z,24.93
2022-08-12T20:04:24.877Z,24.89
2022-08-12T20:07:59.499Z,24.85
2022-08-12T20:12:13.982Z,24.79
2022-08-12T20:15:17.850Z,24.70
2022-08-12T20:18:57.005Z,24.64
2022-08-12T20:22:39.311Z,24.58
2022-08-12T20:26:11.846Z,24.53
2022-08-12T20:29:45.638Z,24.47
2022-08-12T20:33:17.743Z,24.39
2022-08-12T20:36:57.303Z,24.33
2022-08-12T20:40:33.744Z,24.27
2022-08-12T20:44:05.825Z,24.22
2022-08-12T20:47:47.343Z,24.16
2022-08-12T20:51:51.030Z,24.09
2022-08-12T20:55:19.681Z,24.03
2022-08-12T20:58:52.238Z,23.98
2022-08-12T21:02:24.477Z,23.95
2022-08-12T21:06:18.728Z,23.89
2022-08-12T21:09:53.612Z,23.85
2022-08-12T21:13:23.259Z,23.81
2022-08-12T21:16:54.838Z,23.78
2022-08-12T21:20:24.595Z,23.74
2022-08-12T21:23:59.085Z,23.70
2022-08-12T21:27:57.724Z,23.65
2022-08-12T21:32:40.165Z,23.60
2022-08-12T21:35:17.433Z,23.55
2022-08-12T21:38:49.676Z,23.49
2022-08-12T21:42:18.154Z,23.44
2022-08-12T21:46:00.648Z,23.41
2022-08-12T21:49:55.301Z,23.37
2022-08-12T21:53:20.142Z,23.35
2022-08-12T21:56:54.112Z,23.31
2022-08-12T22:00:33.592Z,23.28
2022-08-12T22:04:19.783Z,23.26
2022-08-12T22:07:58.261Z,23.23
2022-08-12T22:11:41.475Z,23.21
2022-08-12T22:15:21.594Z,23.17
2022-08-12T22:18:53.759Z,23.17
2022-08-12T22:22:32.809Z,23.15
2022-08-12T22:26:04.953Z,23.13
2022-08-12T22:29:52.885Z,23.12
2022-08-12T22:33:24.882Z,23.10
2022-08-12T22:36:57.897Z,23.09
2022-08-12T22:40:27.758Z,23.07
2022-08-12T22:44:18.432Z,23.04
2022-08-12T22:47:55.664Z,23.01
2022-08-12T22:51:25.102Z,22.97
2022-08-12T22:55:02.949Z,22.95
2022-08-12T22:58:34.008Z,22.93
2022-08-12T23:02:04.403Z,22.91
2022-08-12T23:05:56.635Z,22.89
2022-08-12T23:09:25.214Z,22.86
2022-08-12T23:13:11.053Z,22.83
2022-08-12T23:16:41.339Z,22.79
2022-08-12T23:20:15.585Z,22.78
2022-08-12T23:24:09.405Z,22.74
2022-08-12T23:27:52.205Z,22.71
2022-08-12T23:31:30.384Z,22.69
2022-08-12T23:35:18.891Z,22.67
2022-08-12T23:38:58.685Z,22.65
2022-08-12T23:42:30.763Z,22.64
2022-08-12T23:46:00.945Z,22.62
2022-08-12T23:49:57.763Z,22.60
2022-08-12T23:53:32.414Z,22.59
2022-08-12T23:57:10.872Z,22.56
